Time;durP1;ratioP1;P1;durP2;ratioP2;P2;SDS_P1;SDS_P2;PMS_P1;PMS_P2;Temp;Humidity;BMP_temperature;BMP_pressure;BME280_temperature;BME280_humidity;BME280_pressure;Samples;Min_cycle;Max_cycle;Signal;HPM_P1;HPM_P2
2022/05/08 00:08:11;;;;;;;1.73;0.80;;;;;;;;;;20653423;28;20312;-80
2022/05/08 00:18:13;;;;;;;2.17;1.30;;;;;;;;;;20669169;28;20270;-81
2022/05/08 00:28:14;;;;;;;1.77;1.10;;;;;;;;;;20667354;28;20276;-81
2022/05/08 00:38:16;;;;;;;1.93;1.20;;;;;;;;;;20635703;28;20253;-80
2022/05/08 00:48:18;;;;;;;2.17;1.33;;;;;;;;;;20635976;28;20273;-80
2022/05/08 00:58:20;;;;;;;1.93;1.23;;;;;;;;;;20671391;28;20214;-80
2022/05/08 01:08:22;;;;;;;1.93;1.33;;;;;;;;;;20634778;28;20234;-81
2022/05/08 01:18:26;;;;;;;3.10;1.70;;;;;;;;;;20666919;28;20222;-81
2022/05/08 01:28:32;;;;;;;2.77;1.70;;;;;;;;;;20651315;28;20222;-81
2022/05/08 01:38:34;;;;;;;3.50;1.47;;;;;;;;;;20632237;28;20264;-81
2022/05/08 01:48:36;;;;;;;2.17;1.40;;;;;;;;;;20631673;28;20711;-83
2022/05/08 01:58:38;;;;;;;2.27;1.60;;;;;;;;;;20647049;28;20275;-81
2022/05/08 02:08:41;;;;;;;2.33;1.40;;;;;;;;;;20630142;28;20237;-81
2022/05/08 02:18:42;;;;;;;1.90;1.27;;;;;;;;;;20645374;28;20268;-80
2022/05/08 02:28:44;;;;;;;2.27;1.50;;;;;;;;;;20628916;28;20291;-82
2022/05/08 02:38:46;;;;;;;2.27;1.50;;;;;;;;;;20645039;28;20695;-81
2022/05/08 02:48:47;;;;;;;2.33;1.83;;;;;;;;;;20629437;28;20289;-80
2022/05/08 02:58:49;;;;;;;2.00;1.57;;;;;;;;;;20661780;28;20284;-81
2022/05/08 03:08:52;;;;;;;2.43;1.60;;;;;;;;;;20662244;28;20602;-81
2022/05/08 03:18:54;;;;;;;1.97;1.37;;;17.90;99.90;;;;;;20653314;28;20299;-80
2022/05/08 03:28:56;;;;;;;1.90;1.50;;;;;;;;;;20657701;28;20290;-80
2022/05/08 03:38:58;;;;;;;2.70;1.53;;;;;;;;;;20674483;28;20212;-81
2022/05/08 03:48:59;;;;;;;3.40;1.87;;;;;;;;;;20717211;28;20271;-81
2022/05/08 03:59:01;;;;;;;2.47;1.60;;;;;;;;;;20658137;28;20275;-81
2022/05/08 04:09:03;;;;;;;2.97;1.70;;;;;;;;;;20638944;28;20232;-82
2022/05/08 04:19:07;;;;;;;2.37;1.63;;;;;;;;;;20670526;28;20251;-80
2022/05/08 04:29:09;;;;;;;2.23;1.50;;;;;;;;;;20669468;28;20229;-80
2022/05/08 04:39:10;;;;;;;2.00;1.40;;;;;;;;;;20668144;28;20283;-81
2022/05/08 04:49:12;;;;;;;2.43;1.97;;;;;;;;;;20650894;28;20243;-80
2022/05/08 04:59:15;;;;;;;5.27;1.93;;;;;;;;;;20665613;28;20270;-80
2022/05/08 05:09:17;;;;;;;3.33;1.60;;;;;;;;;;20649031;28;20224;-80
2022/05/08 05:19:19;;;;;;;2.97;1.67;;;;;;;;;;20648161;28;20215;-80
2022/05/08 05:29:21;;;;;;;3.00;1.80;;;;;;;;;;20649423;28;20231;-79
2022/05/08 05:39:26;;;;;;;3.73;1.70;;;;;;;;;;20646607;28;20596;-82
2022/05/08 05:49:28;;;;;;;2.00;1.63;;;;;;;;;;20646150;28;20235;-81
2022/05/08 05:59:30;;;;;;;4.23;1.97;;;;;;;;;;20629835;28;20203;-80
2022/05/08 06:09:31;;;;;;;2.50;1.50;;;;;;;;;;20661471;28;20231;-80
2022/05/08 06:19:34;;;;;;;2.83;1.70;;;;;;;;;;20662532;28;20213;-80
2022/05/08 06:29:35;;;;;;;2.00;1.23;;;;;;;;;;20656118;28;20248;-82
2022/05/08 06:39:38;;;;;;;2.60;1.60;;;;;;;;;;20678478;28;20294;-79
2022/05/08 06:49:40;;;;;;;2.17;1.60;;;;;;;;;;20643634;28;20752;-80
2022/05/08 07:10:02;;;;;;;3.17;1.70;;;18.90;99.90;;;;;;20673650;28;20425;-80
2022/05/08 07:20:05;;;;;;;2.40;1.73;;;;;;;;;;20675226;28;20313;-81
2022/05/08 07:30:07;;;;;;;2.33;1.63;;;19.90;99.90;;;;;;20672730;28;20298;-81
2022/05/08 07:40:09;;;;;;;2.37;1.60;;;;;;;;;;20671583;28;20225;-81
2022/05/08 07:50:11;;;;;;;2.83;1.60;;;;;;;;;;20673758;28;20238;-80
2022/05/08 08:00:16;;;;;;;1.73;1.40;;;;;;;;;;20639489;28;20210;-79
2022/05/08 08:10:20;;;;;;;4.20;1.93;;;;;;;;;;20716701;28;20568;-80
2022/05/08 08:20:22;;;;;;;1.50;1.23;;;;;;;;;;20686458;28;20273;-81
2022/05/08 08:30:24;;;;;;;2.57;1.43;;;;;;;;;;20652985;28;20266;-82
2022/05/08 08:40:26;;;;;;;4.50;1.73;;;;;;;;;;20668654;28;20223;-81
2022/05/08 08:50:29;;;;;;;4.73;1.40;;;21.80;99.90;;;;;;20666320;28;20591;-82
2022/05/08 09:00:30;;;;;;;3.03;1.73;;;;;;;;;;20742944;28;20230;-81
2022/05/08 09:10:36;;;;;;;1.93;1.50;;;;;;;;;;20711805;28;20337;-79
2022/05/08 09:20:43;;;;;;;2.03;1.20;;;;;;;;;;20646531;28;20577;-82
2022/05/08 09:31:07;;;;;;;2.63;1.27;;;22.70;99.90;;;;;;20630772;28;20706;-83
2022/05/08 09:41:26;;;;;;;1.75;1.13;;;;;;;;;;20630953;28;20238;-82
2022/05/08 09:51:34;;;;;;;2.28;1.50;;;;;;;;;;20651108;23;20232;-64
2022/05/08 10:01:43;;;;;;;2.05;1.33;;;23.40;99.90;;;;;;20647977;28;20227;-64
2022/05/08 10:22:07;;;;;;;1.73;1.15;;;;;;;;;;20700370;28;20213;-65
2022/05/08 10:32:13;;;;;;;1.70;1.40;;;24.30;99.90;;;;;;20710948;28;20688;-65
2022/05/08 10:42:33;;;;;;;2.70;1.10;;;24.50;97.60;;;;;;20712967;28;20210;-65
2022/05/08 10:52:46;;;;;;;1.33;0.98;;;;;;;;;;20727841;28;20221;-65
2022/05/08 11:02:57;;;;;;;1.98;1.15;;;;;;;;;;20743002;28;20217;-65
2022/05/08 11:12:59;;;;;;;1.80;1.30;;;;;;;;;;20709811;28;20262;-64
2022/05/08 11:23:01;;;;;;;1.67;1.08;;;;;;;;;;20709043;28;20280;-64
2022/05/08 11:43:46;;;;;;;1.77;1.15;;;25.80;95.30;;;;;;20682089;28;20209;-65
2022/05/08 11:53:49;;;;;;;3.40;1.30;;;26.20;99.90;;;;;;20668452;28;20450;-64
2022/05/08 12:03:52;;;;;;;1.52;1.05;;;;;;;;;;20713166;28;20229;-64
2022/05/08 12:14:04;;;;;;;1.92;1.15;;;24.60;99.90;;;;;;20678493;28;20261;-65
2022/05/08 12:24:10;;;;;;;1.75;1.00;;;;;;;;;;20673978;28;20684;-65
2022/05/08 12:44:26;;;;;;;1.92;1.08;;;;;;;;;;20625059;28;20255;-68
2022/05/08 12:54:27;;;;;;;1.25;0.68;;;;;;;;;;20610485;28;20258;-67
2022/05/08 13:04:31;;;;;;;1.35;0.90;;;;;;;;;;20610645;28;20703;-69
2022/05/08 13:14:33;;;;;;;1.67;0.88;;;;;;;;;;20612048;28;20215;-70
2022/05/08 13:24:35;;;;;;;1.15;0.70;;;;;;;;;;20609623;28;20226;-69
2022/05/08 13:34:37;;;;;;;1.33;0.90;;;;;;;;;;20626130;28;20226;-71
2022/05/08 13:44:39;;;;;;;2.50;0.70;;;;;;;;;;20583066;28;20223;-71
2022/05/08 13:54:43;;;;;;;2.03;1.00;;;;;;;;;;20647070;28;20221;-69
2022/05/08 14:04:45;;;;;;;2.13;1.38;;;;;;;;;;20689648;28;20292;-69
2022/05/08 14:14:47;;;;;;;1.50;0.90;;;;;;;;;;20692114;28;20756;-70
2022/05/08 14:24:49;;;;;;;0.70;0.60;;;;;;;;;;20690975;28;20220;-71
2022/05/08 14:45:11;;;;;;;1.23;0.90;;;;;;;;;;20739627;28;20676;-71
2022/05/08 14:55:13;;;;;;;2.35;1.20;;;;;;;;;;20705922;28;20225;-71
2022/05/08 15:05:15;;;;;;;1.23;0.90;;;;;;;;;;20689040;28;20276;-70
2022/05/08 15:15:17;;;;;;;1.85;1.15;;;;;;;;;;20670954;28;20355;-70
2022/05/08 15:25:20;;;;;;;1.35;0.98;;;;;;;;;;20610500;28;20209;-71
2022/05/08 15:35:22;;;;;;;1.60;0.93;;;;;;;;;;20660194;28;20259;-70
2022/05/08 15:45:25;;;;;;;1.80;0.80;;;;;;;;;;20627854;28;20886;-71
2022/05/08 15:55:27;;;;;;;1.63;1.10;;;;;;;;;;20619575;28;20196;-70
2022/05/08 16:05:55;;;;;;;1.88;1.00;;;;;;;;;;20612822;28;20770;-71
2022/05/08 16:26:17;;;;;;;2.00;0.90;;;;;;;;;;20630503;28;20298;-71
2022/05/08 16:36:21;;;;;;;1.58;1.20;;;;;;;;;;20601267;28;20287;-71
2022/05/08 16:46:22;;;;;;;2.08;1.17;;;22.80;99.90;;;;;;20622216;28;20666;-70
2022/05/08 16:56:25;;;;;;;3.80;1.48;;;;;;;;;;20610740;28;20611;-70
2022/05/08 17:06:27;;;;;;;2.85;1.30;;;;;;;;;;20664328;28;20277;-69
2022/05/08 17:16:29;;;;;;;0.93;0.63;;;;;;;;;;20692796;28;20274;-69
2022/05/08 17:28:45;;;;;;;1.30;0.82;;;22.50;99.90;;;;;;20726749;28;20227;-70
2022/05/08 17:36:55;;;;;;;1.08;0.70;;;;;;;;;;20713694;28;20243;-69
2022/05/08 17:46:57;;;;;;;1.40;0.80;;;;;;;;;;20691632;28;20640;-70
2022/05/08 17:56:59;;;;;;;3.03;0.70;;;;;;;;;;20690459;28;20741;-69
2022/05/08 18:07:02;;;;;;;3.50;0.90;;;;;;;;;;20629294;28;20235;-68
2022/05/08 18:17:05;;;;;;;1.45;1.08;;;;;;;;;;20610407;28;20228;-70
2022/05/08 18:27:07;;;;;;;2.47;0.80;;;;;;;;;;20608989;28;20224;-70
2022/05/08 18:37:09;;;;;;;1.27;0.85;;;;;;;;;;20607933;28;20274;-70
2022/05/08 18:47:11;;;;;;;2.17;0.90;;;;;;;;;;20610885;28;20701;-70
2022/05/08 18:57:13;;;;;;;2.83;1.23;;;;;;;;;;20864156;23;20228;-65
2022/05/08 19:07:15;;;;;;;1.17;0.90;;;;;;;;;;20883203;28;20242;-65
2022/05/08 19:17:18;;;;;;;1.47;0.97;;;;;;;;;;20922277;28;20687;-65
2022/05/08 19:27:20;;;;;;;2.30;1.30;;;;;;;;;;20939233;28;20275;-65
2022/05/08 19:48:00;;;;;;;1.63;1.05;;;;;;;;;;20910553;28;20796;-66
2022/05/08 19:58:03;;;;;;;2.40;1.47;;;;;;;;;;20971001;28;20697;-65
2022/05/08 20:08:05;;;;;;;2.57;1.23;;;;;;;;;;20955082;28;20321;-65
2022/05/08 20:18:07;;;;;;;1.77;1.20;;;;;;;;;;20936464;28;20206;-65
2022/05/08 20:28:09;;;;;;;1.73;1.30;;;;;;;;;;20879877;28;20221;-65
2022/05/08 20:38:12;;;;;;;2.07;1.30;;;;;;;;;;20856108;28;20253;-65
2022/05/08 20:48:14;;;;;;;1.60;1.20;;;;;;;;;;20873386;28;20279;-65
2022/05/08 20:58:17;;;;;;;1.97;1.20;;;;;;;;;;20858969;28;20206;-65
2022/05/08 21:08:20;;;;;;;1.60;1.10;;;;;;;;;;20874879;28;20786;-65
2022/05/08 21:18:22;;;;;;;1.90;1.13;;;;;;;;;;20857669;28;20263;-65
2022/05/08 21:28:24;;;;;;;2.97;1.40;;;;;;;;;;20874133;28;20213;-65
2022/05/08 21:38:26;;;;;;;2.57;1.40;;;;;;;;;;20872829;28;20247;-65
2022/05/08 21:48:29;;;;;;;1.70;1.20;;;;;;;;;;20872324;28;20306;-65
2022/05/08 21:58:31;;;;;;;2.50;1.53;;;;;;;;;;20872045;28;20235;-65
2022/05/08 22:08:34;;;;;;;2.90;1.27;;;;;;;;;;20871620;28;20714;-65
2022/05/08 22:28:58;;;;;;;2.10;1.30;;;;;;;;;;20888241;28;20297;-65
2022/05/08 22:39:00;;;;;;;2.30;1.47;;;;;;;;;;20903225;28;20212;-65
2022/05/08 22:49:11;;;;;;;3.63;1.27;;;;;;;;;;20872409;28;20278;-65
2022/05/08 22:59:13;;;;;;;2.07;1.30;;;;;;;;;;20892517;28;20269;-65
2022/05/08 23:09:14;;;;;;;2.27;1.60;;;;;;;;;;20883847;28;20236;-65
2022/05/08 23:19:16;;;;;;;3.60;1.80;;;;;;;;;;20868115;28;20261;-65
2022/05/08 23:29:18;;;;;;;1.80;1.33;;;;;;;;;;20867090;28;20705;-65
2022/05/08 23:39:20;;;;;;;2.03;1.37;;;;;;;;;;20864910;28;20267;-65
2022/05/08 23:49:22;;;;;;;2.03;1.30;;;;;;;;;;20865315;28;20213;-65
2022/05/08 23:59:23;;;;;;;2.90;1.80;;;;;;;;;;20880848;28;20208;-65
